sensor_id;sensor_type;location;lat;lon;timestamp;P1;durP1;ratioP1;P2;durP2;ratioP2
18210;SDS011;9231;48.852;9.882;2022-10-16T00:02:08;5.63;;;3.45;;
18210;SDS011;9231;48.852;9.882;2022-10-16T00:04:35;7.03;;;3.22;;
18210;SDS011;9231;48.852;9.882;2022-10-16T00:07:01;5.97;;;3.03;;
18210;SDS011;9231;48.852;9.882;2022-10-16T00:09:27;4.70;;;3.47;;
18210;SDS011;9231;48.852;9.882;2022-10-16T00:11:55;5.33;;;3.10;;
18210;SDS011;9231;48.852;9.882;2022-10-16T00:14:22;6.18;;;2.92;;
18210;SDS011;9231;48.852;9.882;2022-10-16T00:16:48;7.07;;;3.60;;
18210;SDS011;9231;48.852;9.882;2022-10-16T00:19:14;5.28;;;3.88;;
18210;SDS011;9231;48.852;9.882;2022-10-16T00:21:41;15.37;;;5.07;;
18210;SDS011;9231;48.852;9.882;2022-10-16T00:24:08;11.35;;;4.47;;
18210;SDS011;9231;48.852;9.882;2022-10-16T00:26:35;7.68;;;4.70;;
18210;SDS011;9231;48.852;9.882;2022-10-16T00:29:03;8.88;;;4.63;;
18210;SDS011;9231;48.852;9.882;2022-10-16T00:31:30;7.28;;;3.90;;
18210;SDS011;9231;48.852;9.882;2022-10-16T00:33:56;5.07;;;3.08;;
18210;SDS011;9231;48.852;9.882;2022-10-16T00:36:23;6.65;;;3.33;;
18210;SDS011;9231;48.852;9.882;2022-10-16T00:38:51;9.57;;;3.97;;
18210;SDS011;9231;48.852;9.882;2022-10-16T00:41:19;5.20;;;3.55;;
18210;SDS011;9231;48.852;9.882;2022-10-16T00:43:47;8.23;;;3.88;;
18210;SDS011;9231;48.852;9.882;2022-10-16T00:46:17;7.25;;;4.05;;
18210;SDS011;9231;48.852;9.882;2022-10-16T00:48:45;6.68;;;2.97;;
18210;SDS011;9231;48.852;9.882;2022-10-16T00:51:13;5.88;;;3.00;;
18210;SDS011;9231;48.852;9.882;2022-10-16T00:53:40;6.45;;;2.80;;
18210;SDS011;9231;48.852;9.882;2022-10-16T00:56:06;4.20;;;3.13;;
18210;SDS011;9231;48.852;9.882;2022-10-16T00:58:32;4.97;;;2.40;;
18210;SDS011;9231;48.852;9.882;2022-10-16T01:00:59;7.13;;;3.25;;
18210;SDS011;9231;48.852;9.882;2022-10-16T01:03:28;3.22;;;2.67;;
18210;SDS011;9231;48.852;9.882;2022-10-16T01:05:58;3.10;;;2.35;;
18210;SDS011;9231;48.852;9.882;2022-10-16T01:08:27;2.67;;;2.30;;
18210;SDS011;9231;48.852;9.882;2022-10-16T01:10:57;4.80;;;2.60;;
18210;SDS011;9231;48.852;9.882;2022-10-16T01:13:24;6.87;;;2.40;;
18210;SDS011;9231;48.852;9.882;2022-10-16T01:15:53;6.10;;;2.47;;
18210;SDS011;9231;48.852;9.882;2022-10-16T01:18:24;7.90;;;2.42;;
18210;SDS011;9231;48.852;9.882;2022-10-16T01:20:58;3.17;;;2.67;;
18210;SDS011;9231;48.852;9.882;2022-10-16T01:23:28;5.57;;;2.67;;
18210;SDS011;9231;48.852;9.882;2022-10-16T01:26:00;4.47;;;2.60;;
18210;SDS011;9231;48.852;9.882;2022-10-16T01:28:34;5.25;;;2.30;;
18210;SDS011;9231;48.852;9.882;2022-10-16T01:31:02;3.50;;;2.35;;
18210;SDS011;9231;48.852;9.882;2022-10-16T01:33:30;3.83;;;3.00;;
18210;SDS011;9231;48.852;9.882;2022-10-16T01:36:02;10.18;;;3.83;;
18210;SDS011;9231;48.852;9.882;2022-10-16T01:38:30;4.53;;;2.58;;
18210;SDS011;9231;48.852;9.882;2022-10-16T01:40:58;3.67;;;2.42;;
18210;SDS011;9231;48.852;9.882;2022-10-16T01:43:26;5.50;;;2.70;;
18210;SDS011;9231;48.852;9.882;2022-10-16T01:45:54;3.90;;;1.97;;
18210;SDS011;9231;48.852;9.882;2022-10-16T01:48:21;2.50;;;2.13;;
18210;SDS011;9231;48.852;9.882;2022-10-16T01:50:54;2.93;;;2.23;;
18210;SDS011;9231;48.852;9.882;2022-10-16T01:53:21;3.50;;;2.10;;
18210;SDS011;9231;48.852;9.882;2022-10-16T01:55:48;2.40;;;2.20;;
18210;SDS011;9231;48.852;9.882;2022-10-16T01:58:15;4.07;;;2.80;;
18210;SDS011;9231;48.852;9.882;2022-10-16T02:00:42;7.17;;;2.70;;
18210;SDS011;9231;48.852;9.882;2022-10-16T02:03:11;11.17;;;3.07;;
18210;SDS011;9231;48.852;9.882;2022-10-16T02:05:39;2.65;;;2.03;;
18210;SDS011;9231;48.852;9.882;2022-10-16T02:08:07;3.40;;;2.43;;
18210;SDS011;9231;48.852;9.882;2022-10-16T02:10:34;6.00;;;2.50;;
18210;SDS011;9231;48.852;9.882;2022-10-16T02:13:02;6.93;;;2.40;;
18210;SDS011;9231;48.852;9.882;2022-10-16T02:15:29;4.17;;;2.50;;
18210;SDS011;9231;48.852;9.882;2022-10-16T02:17:56;6.40;;;2.63;;
18210;SDS011;9231;48.852;9.882;2022-10-16T02:20:24;4.00;;;2.50;;
18210;SDS011;9231;48.852;9.882;2022-10-16T02:22:51;4.00;;;2.80;;
18210;SDS011;9231;48.852;9.882;2022-10-16T02:25:19;3.87;;;2.70;;
18210;SDS011;9231;48.852;9.882;2022-10-16T02:27:49;3.77;;;2.80;;
18210;SDS011;9231;48.852;9.882;2022-10-16T02:30:19;3.97;;;2.57;;
18210;SDS011;9231;48.852;9.882;2022-10-16T02:32:46;6.33;;;2.30;;
18210;SDS011;9231;48.852;9.882;2022-10-16T02:35:14;5.60;;;2.80;;
18210;SDS011;9231;48.852;9.882;2022-10-16T02:37:43;4.80;;;2.10;;
18210;SDS011;9231;48.852;9.882;2022-10-16T02:40:10;4.70;;;2.30;;
18210;SDS011;9231;48.852;9.882;2022-10-16T02:42:38;2.70;;;1.97;;
18210;SDS011;9231;48.852;9.882;2022-10-16T02:45:05;1.67;;;1.57;;
18210;SDS011;9231;48.852;9.882;2022-10-16T02:47:32;4.73;;;2.40;;
18210;SDS011;9231;48.852;9.882;2022-10-16T02:49:59;3.03;;;1.77;;
18210;SDS011;9231;48.852;9.882;2022-10-16T02:52:25;7.53;;;2.60;;
18210;SDS011;9231;48.852;9.882;2022-10-16T02:54:53;7.30;;;2.10;;
18210;SDS011;9231;48.852;9.882;2022-10-16T02:57:19;96.13;;;7.20;;
18210;SDS011;9231;48.852;9.882;2022-10-16T02:59:46;11.63;;;3.83;;
18210;SDS011;9231;48.852;9.882;2022-10-16T03:02:12;5.33;;;3.07;;
18210;SDS011;9231;48.852;9.882;2022-10-16T03:04:39;5.87;;;2.80;;
18210;SDS011;9231;48.852;9.882;2022-10-16T03:07:05;3.33;;;2.57;;
18210;SDS011;9231;48.852;9.882;2022-10-16T03:09:32;3.00;;;2.30;;
18210;SDS011;9231;48.852;9.882;2022-10-16T03:12:00;2.90;;;2.30;;
18210;SDS011;9231;48.852;9.882;2022-10-16T03:14:26;3.67;;;2.00;;
18210;SDS011;9231;48.852;9.882;2022-10-16T03:16:53;3.20;;;2.43;;
18210;SDS011;9231;48.852;9.882;2022-10-16T03:19:20;1.87;;;1.77;;
18210;SDS011;9231;48.852;9.882;2022-10-16T03:21:46;2.63;;;2.00;;
18210;SDS011;9231;48.852;9.882;2022-10-16T03:24:12;1.60;;;1.40;;
18210;SDS011;9231;48.852;9.882;2022-10-16T03:26:39;1.90;;;1.60;;
18210;SDS011;9231;48.852;9.882;2022-10-16T03:29:07;2.00;;;1.73;;
18210;SDS011;9231;48.852;9.882;2022-10-16T03:31:33;213.00;;;14.43;;
18210;SDS011;9231;48.852;9.882;2022-10-16T03:34:00;63.70;;;7.63;;
18210;SDS011;9231;48.852;9.882;2022-10-16T03:36:26;142.37;;;9.97;;
18210;SDS011;9231;48.852;9.882;2022-10-16T03:38:53;4.17;;;3.50;;
18210;SDS011;9231;48.852;9.882;2022-10-16T03:41:19;4.70;;;3.60;;
18210;SDS011;9231;48.852;9.882;2022-10-16T03:43:45;4.40;;;3.17;;
18210;SDS011;9231;48.852;9.882;2022-10-16T03:46:13;6.80;;;3.70;;
18210;SDS011;9231;48.852;9.882;2022-10-16T03:48:40;4.80;;;3.33;;
18210;SDS011;9231;48.852;9.882;2022-10-16T03:51:06;10.53;;;4.57;;
18210;SDS011;9231;48.852;9.882;2022-10-16T03:53:32;8.77;;;3.10;;
18210;SDS011;9231;48.852;9.882;2022-10-16T03:55:59;3.27;;;2.43;;
18210;SDS011;9231;48.852;9.882;2022-10-16T03:58:25;3.97;;;2.03;;
18210;SDS011;9231;48.852;9.882;2022-10-16T04:00:52;2.70;;;1.60;;
18210;SDS011;9231;48.852;9.882;2022-10-16T04:03:20;3.10;;;1.57;;
18210;SDS011;9231;48.852;9.882;2022-10-16T04:05:46;3.53;;;1.43;;
18210;SDS011;9231;48.852;9.882;2022-10-16T04:08:12;2.20;;;1.40;;
18210;SDS011;9231;48.852;9.882;2022-10-16T04:10:39;1.60;;;1.50;;
18210;SDS011;9231;48.852;9.882;2022-10-16T04:13:05;3.37;;;1.53;;
18210;SDS011;9231;48.852;9.882;2022-10-16T04:15:32;3.73;;;1.60;;
18210;SDS011;9231;48.852;9.882;2022-10-16T04:17:58;2.27;;;1.83;;
18210;SDS011;9231;48.852;9.882;2022-10-16T04:20:26;6.73;;;2.10;;
18210;SDS011;9231;48.852;9.882;2022-10-16T04:22:52;4.87;;;2.00;;
18210;SDS011;9231;48.852;9.882;2022-10-16T04:25:19;3.53;;;1.90;;
18210;SDS011;9231;48.852;9.882;2022-10-16T04:27:45;2.13;;;1.73;;
18210;SDS011;9231;48.852;9.882;2022-10-16T04:30:12;4.73;;;1.80;;
18210;SDS011;9231;48.852;9.882;2022-10-16T04:32:38;4.67;;;2.63;;
18210;SDS011;9231;48.852;9.882;2022-10-16T04:35:05;3.03;;;2.27;;
18210;SDS011;9231;48.852;9.882;2022-10-16T04:37:33;4.57;;;2.10;;
18210;SDS011;9231;48.852;9.882;2022-10-16T04:39:59;1.77;;;1.50;;
18210;SDS011;9231;48.852;9.882;2022-10-16T04:42:26;5.23;;;1.97;;
18210;SDS011;9231;48.852;9.882;2022-10-16T04:44:52;4.40;;;2.07;;
18210;SDS011;9231;48.852;9.882;2022-10-16T04:47:18;2.03;;;1.47;;
18210;SDS011;9231;48.852;9.882;2022-10-16T04:49:45;2.03;;;1.30;;
18210;SDS011;9231;48.852;9.882;2022-10-16T04:52:11;1.77;;;1.37;;
18210;SDS011;9231;48.852;9.882;2022-10-16T04:54:39;2.70;;;1.40;;
18210;SDS011;9231;48.852;9.882;2022-10-16T04:57:05;1.53;;;1.43;;
18210;SDS011;9231;48.852;9.882;2022-10-16T04:59:32;2.53;;;1.47;;
18210;SDS011;9231;48.852;9.882;2022-10-16T05:01:58;2.93;;;1.43;;
18210;SDS011;9231;48.852;9.882;2022-10-16T05:04:25;26.37;;;2.53;;
18210;SDS011;9231;48.852;9.882;2022-10-16T05:06:51;1.77;;;1.67;;
18210;SDS011;9231;48.852;9.882;2022-10-16T05:09:17;2.70;;;1.70;;
18210;SDS011;9231;48.852;9.882;2022-10-16T05:11:45;3.30;;;1.43;;
18210;SDS011;9231;48.852;9.882;2022-10-16T05:14:12;22.50;;;2.40;;
18210;SDS011;9231;48.852;9.882;2022-10-16T05:16:38;2.47;;;1.50;;
18210;SDS011;9231;48.852;9.882;2022-10-16T05:19:04;2.17;;;1.20;;
18210;SDS011;9231;48.852;9.882;2022-10-16T05:21:31;1.63;;;1.30;;
18210;SDS011;9231;48.852;9.882;2022-10-16T05:23:57;1.40;;;1.30;;
18210;SDS011;9231;48.852;9.882;2022-10-16T05:26:24;4.60;;;1.33;;
18210;SDS011;9231;48.852;9.882;2022-10-16T05:28:51;3.03;;;1.25;;
18210;SDS011;9231;48.852;9.882;2022-10-16T05:31:18;2.53;;;1.83;;
18210;SDS011;9231;48.852;9.882;2022-10-16T05:33:44;3.87;;;1.60;;
18210;SDS011;9231;48.852;9.882;2022-10-16T05:36:11;3.20;;;1.70;;
18210;SDS011;9231;48.852;9.882;2022-10-16T05:38:38;1.63;;;1.53;;
18210;SDS011;9231;48.852;9.882;2022-10-16T05:41:05;1.90;;;1.70;;
18210;SDS011;9231;48.852;9.882;2022-10-16T05:43:31;2.27;;;1.20;;
18210;SDS011;9231;48.852;9.882;2022-10-16T05:45:59;1.33;;;1.17;;
18210;SDS011;9231;48.852;9.882;2022-10-16T05:48:26;1.63;;;1.33;;
18210;SDS011;9231;48.852;9.882;2022-10-16T05:50:56;4.67;;;1.60;;
18210;SDS011;9231;48.852;9.882;2022-10-16T05:53:23;1.77;;;1.20;;
18210;SDS011;9231;48.852;9.882;2022-10-16T05:55:53;2.20;;;1.50;;
18210;SDS011;9231;48.852;9.882;2022-10-16T05:58:20;1.50;;;1.40;;
18210;SDS011;9231;48.852;9.882;2022-10-16T06:00:52;1.93;;;1.27;;
18210;SDS011;9231;48.852;9.882;2022-10-16T06:03:20;1.90;;;1.53;;
18210;SDS011;9231;48.852;9.882;2022-10-16T06:05:46;2.27;;;1.40;;
18210;SDS011;9231;48.852;9.882;2022-10-16T06:08:13;3.13;;;1.73;;
18210;SDS011;9231;48.852;9.882;2022-10-16T06:10:39;2.60;;;1.73;;
18210;SDS011;9231;48.852;9.882;2022-10-16T06:13:06;4.67;;;2.20;;
18210;SDS011;9231;48.852;9.882;2022-10-16T06:15:32;3.37;;;1.80;;
18210;SDS011;9231;48.852;9.882;2022-10-16T06:17:59;2.97;;;2.20;;
18210;SDS011;9231;48.852;9.882;2022-10-16T06:20:27;2.43;;;2.23;;
18210;SDS011;9231;48.852;9.882;2022-10-16T06:22:53;3.27;;;1.53;;
18210;SDS011;9231;48.852;9.882;2022-10-16T06:25:20;2.80;;;1.60;;
18210;SDS011;9231;48.852;9.882;2022-10-16T06:27:46;3.57;;;1.60;;
18210;SDS011;9231;48.852;9.882;2022-10-16T06:30:12;3.30;;;1.57;;
18210;SDS011;9231;48.852;9.882;2022-10-16T06:32:39;3.20;;;1.67;;
18210;SDS011;9231;48.852;9.882;2022-10-16T06:35:05;3.03;;;1.48;;
18210;SDS011;9231;48.852;9.882;2022-10-16T06:37:33;3.85;;;1.73;;
18210;SDS011;9231;48.852;9.882;2022-10-16T06:40:00;3.93;;;2.70;;
18210;SDS011;9231;48.852;9.882;2022-10-16T06:42:29;4.30;;;3.90;;
18210;SDS011;9231;48.852;9.882;2022-10-16T06:44:55;9.60;;;3.53;;
18210;SDS011;9231;48.852;9.882;2022-10-16T06:47:22;4.53;;;3.00;;
18210;SDS011;9231;48.852;9.882;2022-10-16T06:49:48;4.03;;;2.80;;
18210;SDS011;9231;48.852;9.882;2022-10-16T06:52:15;3.47;;;2.37;;
18210;SDS011;9231;48.852;9.882;2022-10-16T06:54:42;2.13;;;1.93;;
18210;SDS011;9231;48.852;9.882;2022-10-16T06:57:09;1.85;;;1.50;;
18210;SDS011;9231;48.852;9.882;2022-10-16T06:59:35;3.80;;;1.50;;
18210;SDS011;9231;48.852;9.882;2022-10-16T07:02:02;3.13;;;1.63;;
18210;SDS011;9231;48.852;9.882;2022-10-16T07:04:28;6.40;;;2.03;;
18210;SDS011;9231;48.852;9.882;2022-10-16T07:06:54;4.77;;;2.30;;
18210;SDS011;9231;48.852;9.882;2022-10-16T07:09:21;3.33;;;2.80;;
18210;SDS011;9231;48.852;9.882;2022-10-16T07:11:49;6.50;;;3.93;;
18210;SDS011;9231;48.852;9.882;2022-10-16T07:14:16;3.30;;;2.60;;
18210;SDS011;9231;48.852;9.882;2022-10-16T07:16:43;5.80;;;3.63;;
18210;SDS011;9231;48.852;9.882;2022-10-16T07:19:09;4.13;;;3.20;;
18210;SDS011;9231;48.852;9.882;2022-10-16T07:21:37;6.00;;;4.97;;
18210;SDS011;9231;48.852;9.882;2022-10-16T07:24:04;6.18;;;5.65;;
18210;SDS011;9231;48.852;9.882;2022-10-16T07:26:32;8.88;;;5.60;;
18210;SDS011;9231;48.852;9.882;2022-10-16T07:29:01;8.10;;;5.68;;
18210;SDS011;9231;48.852;9.882;2022-10-16T07:31:28;5.50;;;5.00;;
18210;SDS011;9231;48.852;9.882;2022-10-16T07:33:54;5.32;;;4.85;;
18210;SDS011;9231;48.852;9.882;2022-10-16T07:36:21;13.15;;;8.88;;
18210;SDS011;9231;48.852;9.882;2022-10-16T07:38:48;17.02;;;10.90;;
18210;SDS011;9231;48.852;9.882;2022-10-16T07:41:15;33.42;;;21.20;;
18210;SDS011;9231;48.852;9.882;2022-10-16T07:43:45;13.98;;;10.18;;
18210;SDS011;9231;48.852;9.882;2022-10-16T07:46:13;10.45;;;8.13;;
18210;SDS011;9231;48.852;9.882;2022-10-16T07:48:39;9.13;;;6.32;;
18210;SDS011;9231;48.852;9.882;2022-10-16T07:51:06;5.47;;;4.78;;
18210;SDS011;9231;48.852;9.882;2022-10-16T07:53:33;6.28;;;4.93;;
18210;SDS011;9231;48.852;9.882;2022-10-16T07:55:59;5.45;;;4.22;;
18210;SDS011;9231;48.852;9.882;2022-10-16T07:58:26;12.50;;;5.20;;
18210;SDS011;9231;48.852;9.882;2022-10-16T08:00:52;3.75;;;3.45;;
18210;SDS011;9231;48.852;9.882;2022-10-16T08:03:20;5.93;;;4.35;;
18210;SDS011;9231;48.852;9.882;2022-10-16T08:05:47;4.40;;;3.38;;
18210;SDS011;9231;48.852;9.882;2022-10-16T08:08:14;4.80;;;3.55;;
18210;SDS011;9231;48.852;9.882;2022-10-16T08:10:40;4.07;;;3.15;;
18210;SDS011;9231;48.852;9.882;2022-10-16T08:13:07;2.80;;;2.60;;
18210;SDS011;9231;48.852;9.882;2022-10-16T08:15:33;3.30;;;2.40;;
18210;SDS011;9231;48.852;9.882;2022-10-16T08:18:00;3.70;;;2.38;;
18210;SDS011;9231;48.852;9.882;2022-10-16T08:20:29;3.70;;;2.38;;
18210;SDS011;9231;48.852;9.882;2022-10-16T08:22:55;4.05;;;2.45;;
18210;SDS011;9231;48.852;9.882;2022-10-16T08:25:22;3.13;;;2.42;;
18210;SDS011;9231;48.852;9.882;2022-10-16T08:27:49;3.75;;;2.25;;
18210;SDS011;9231;48.852;9.882;2022-10-16T08:30:15;4.90;;;2.42;;
18210;SDS011;9231;48.852;9.882;2022-10-16T08:32:42;6.30;;;3.05;;
18210;SDS011;9231;48.852;9.882;2022-10-16T08:35:08;8.13;;;4.90;;
18210;SDS011;9231;48.852;9.882;2022-10-16T08:37:36;6.78;;;4.97;;
18210;SDS011;9231;48.852;9.882;2022-10-16T08:40:04;6.90;;;4.90;;
18210;SDS011;9231;48.852;9.882;2022-10-16T08:42:35;5.70;;;4.97;;
18210;SDS011;9231;48.852;9.882;2022-10-16T08:45:08;3.90;;;3.35;;
18210;SDS011;9231;48.852;9.882;2022-10-16T08:47:42;4.35;;;3.80;;
18210;SDS011;9231;48.852;9.882;2022-10-16T08:50:10;5.10;;;3.97;;
18210;SDS011;9231;48.852;9.882;2022-10-16T08:52:40;7.35;;;2.70;;
18210;SDS011;9231;48.852;9.882;2022-10-16T08:55:08;3.90;;;3.00;;
18210;SDS011;9231;48.852;9.882;2022-10-16T08:57:42;8.80;;;3.45;;
18210;SDS011;9231;48.852;9.882;2022-10-16T09:00:12;6.40;;;2.45;;
18210;SDS011;9231;48.852;9.882;2022-10-16T09:02:40;3.53;;;2.47;;
18210;SDS011;9231;48.852;9.882;2022-10-16T09:05:22;3.33;;;2.92;;
18210;SDS011;9231;48.852;9.882;2022-10-16T09:07:54;8.43;;;2.53;;
18210;SDS011;9231;48.852;9.882;2022-10-16T09:10:26;2.78;;;1.75;;
18210;SDS011;9231;48.852;9.882;2022-10-16T09:12:57;2.03;;;1.90;;
18210;SDS011;9231;48.852;9.882;2022-10-16T09:15:29;3.65;;;1.95;;
18210;SDS011;9231;48.852;9.882;2022-10-16T09:17:59;5.07;;;2.38;;
18210;SDS011;9231;48.852;9.882;2022-10-16T09:20:28;3.78;;;2.60;;
18210;SDS011;9231;48.852;9.882;2022-10-16T09:23:07;6.85;;;3.65;;
18210;SDS011;9231;48.852;9.882;2022-10-16T09:25:34;5.78;;;5.18;;
18210;SDS011;9231;48.852;9.882;2022-10-16T09:28:01;7.85;;;5.10;;
18210;SDS011;9231;48.852;9.882;2022-10-16T09:30:27;7.03;;;3.85;;
18210;SDS011;9231;48.852;9.882;2022-10-16T09:32:55;3.50;;;2.95;;
18210;SDS011;9231;48.852;9.882;2022-10-16T09:35:24;3.60;;;2.53;;
18210;SDS011;9231;48.852;9.882;2022-10-16T09:37:52;3.90;;;2.40;;
18210;SDS011;9231;48.852;9.882;2022-10-16T09:40:25;4.00;;;2.53;;
18210;SDS011;9231;48.852;9.882;2022-10-16T09:42:52;4.03;;;3.63;;
18210;SDS011;9231;48.852;9.882;2022-10-16T09:45:23;4.78;;;4.28;;
18210;SDS011;9231;48.852;9.882;2022-10-16T09:47:49;7.40;;;4.18;;
18210;SDS011;9231;48.852;9.882;2022-10-16T09:50:22;2.33;;;2.13;;
18210;SDS011;9231;48.852;9.882;2022-10-16T09:52:50;2.60;;;1.67;;
18210;SDS011;9231;48.852;9.882;2022-10-16T09:55:17;1.92;;;1.13;;
18210;SDS011;9231;48.852;9.882;2022-10-16T09:57:51;2.38;;;1.30;;
18210;SDS011;9231;48.852;9.882;2022-10-16T10:00:18;6.03;;;2.10;;
18210;SDS011;9231;48.852;9.882;2022-10-16T10:02:45;3.67;;;1.15;;
18210;SDS011;9231;48.852;9.882;2022-10-16T10:05:18;4.30;;;1.35;;
18210;SDS011;9231;48.852;9.882;2022-10-16T10:07:46;3.30;;;1.73;;
18210;SDS011;9231;48.852;9.882;2022-10-16T10:10:18;5.32;;;2.40;;
18210;SDS011;9231;48.852;9.882;2022-10-16T10:12:45;3.05;;;1.77;;
18210;SDS011;9231;48.852;9.882;2022-10-16T10:15:13;4.60;;;1.75;;
18210;SDS011;9231;48.852;9.882;2022-10-16T10:17:45;3.80;;;1.20;;
18210;SDS011;9231;48.852;9.882;2022-10-16T10:20:15;5.13;;;1.30;;
18210;SDS011;9231;48.852;9.882;2022-10-16T10:22:47;4.70;;;2.13;;
18210;SDS011;9231;48.852;9.882;2022-10-16T10:28:09;3.40;;;1.30;;
18210;SDS011;9231;48.852;9.882;2022-10-16T10:30:43;1.42;;;1.05;;
18210;SDS011;9231;48.852;9.882;2022-10-16T10:33:15;2.75;;;1.13;;
18210;SDS011;9231;48.852;9.882;2022-10-16T10:35:46;2.17;;;1.08;;
18210;SDS011;9231;48.852;9.882;2022-10-16T10:38:19;3.83;;;0.90;;
18210;SDS011;9231;48.852;9.882;2022-10-16T10:40:49;1.65;;;1.20;;
18210;SDS011;9231;48.852;9.882;2022-10-16T10:43:27;5.70;;;2.38;;
18210;SDS011;9231;48.852;9.882;2022-10-16T10:45:58;1.88;;;1.05;;
18210;SDS011;9231;48.852;9.882;2022-10-16T10:48:28;3.03;;;0.98;;
18210;SDS011;9231;48.852;9.882;2022-10-16T10:51:00;3.53;;;1.10;;
18210;SDS011;9231;48.852;9.882;2022-10-16T10:53:31;1.63;;;0.80;;
18210;SDS011;9231;48.852;9.882;2022-10-16T10:56:03;1.33;;;0.90;;
18210;SDS011;9231;48.852;9.882;2022-10-16T10:58:42;0.85;;;0.80;;
18210;SDS011;9231;48.852;9.882;2022-10-16T11:01:15;2.45;;;1.42;;
18210;SDS011;9231;48.852;9.882;2022-10-16T11:03:46;0.70;;;0.60;;
18210;SDS011;9231;48.852;9.882;2022-10-16T11:06:21;2.03;;;1.10;;
18210;SDS011;9231;48.852;9.882;2022-10-16T11:08:50;3.78;;;1.05;;
18210;SDS011;9231;48.852;9.882;2022-10-16T11:11:18;1.65;;;0.80;;
18210;SDS011;9231;48.852;9.882;2022-10-16T11:13:48;4.07;;;2.55;;
18210;SDS011;9231;48.852;9.882;2022-10-16T11:16:19;2.20;;;0.98;;
18210;SDS011;9231;48.852;9.882;2022-10-16T11:18:49;1.55;;;1.02;;
18210;SDS011;9231;48.852;9.882;2022-10-16T11:21:18;3.78;;;1.02;;
18210;SDS011;9231;48.852;9.882;2022-10-16T11:23:46;2.20;;;0.85;;
18210;SDS011;9231;48.852;9.882;2022-10-16T11:26:16;3.70;;;1.70;;
18210;SDS011;9231;48.852;9.882;2022-10-16T11:28:45;4.03;;;1.20;;
18210;SDS011;9231;48.852;9.882;2022-10-16T11:31:13;2.95;;;1.50;;
18210;SDS011;9231;48.852;9.882;2022-10-16T11:33:44;1.23;;;0.90;;
18210;SDS011;9231;48.852;9.882;2022-10-16T11:36:12;2.15;;;1.00;;
18210;SDS011;9231;48.852;9.882;2022-10-16T11:38:43;3.47;;;1.08;;
18210;SDS011;9231;48.852;9.882;2022-10-16T11:41:13;1.27;;;0.95;;
18210;SDS011;9231;48.852;9.882;2022-10-16T11:43:41;1.45;;;0.80;;
18210;SDS011;9231;48.852;9.882;2022-10-16T11:46:09;0.93;;;0.88;;
18210;SDS011;9231;48.852;9.882;2022-10-16T11:48:39;1.38;;;0.80;;
18210;SDS011;9231;48.852;9.882;2022-10-16T11:51:11;2.15;;;0.93;;
18210;SDS011;9231;48.852;9.882;2022-10-16T11:53:43;1.63;;;0.60;;
18210;SDS011;9231;48.852;9.882;2022-10-16T11:56:11;2.70;;;0.85;;
18210;SDS011;9231;48.852;9.882;2022-10-16T11:58:40;1.92;;;0.80;;
18210;SDS011;9231;48.852;9.882;2022-10-16T12:01:13;3.45;;;0.85;;
18210;SDS011;9231;48.852;9.882;2022-10-16T12:03:42;1.98;;;1.00;;
18210;SDS011;9231;48.852;9.882;2022-10-16T12:06:22;1.50;;;0.90;;
18210;SDS011;9231;48.852;9.882;2022-10-16T12:08:49;2.45;;;1.00;;
18210;SDS011;9231;48.852;9.882;2022-10-16T12:11:23;2.83;;;1.13;;
18210;SDS011;9231;48.852;9.882;2022-10-16T12:13:50;4.93;;;3.30;;
18210;SDS011;9231;48.852;9.882;2022-10-16T12:16:20;2.70;;;1.75;;
18210;SDS011;9231;48.852;9.882;2022-10-16T12:18:47;5.40;;;1.50;;
18210;SDS011;9231;48.852;9.882;2022-10-16T12:21:14;3.35;;;1.63;;
18210;SDS011;9231;48.852;9.882;2022-10-16T12:23:48;1.73;;;0.70;;
18210;SDS011;9231;48.852;9.882;2022-10-16T12:26:15;1.80;;;1.38;;
18210;SDS011;9231;48.852;9.882;2022-10-16T12:28:49;2.88;;;1.50;;
18210;SDS011;9231;48.852;9.882;2022-10-16T12:31:16;2.45;;;0.93;;
18210;SDS011;9231;48.852;9.882;2022-10-16T12:33:52;2.80;;;1.30;;
18210;SDS011;9231;48.852;9.882;2022-10-16T12:36:26;3.10;;;0.93;;
18210;SDS011;9231;48.852;9.882;2022-10-16T12:38:54;1.00;;;0.70;;
18210;SDS011;9231;48.852;9.882;2022-10-16T12:41:25;1.73;;;0.80;;
18210;SDS011;9231;48.852;9.882;2022-10-16T12:43:52;2.42;;;1.30;;
18210;SDS011;9231;48.852;9.882;2022-10-16T12:46:21;3.33;;;0.93;;
18210;SDS011;9231;48.852;9.882;2022-10-16T12:48:48;1.13;;;0.80;;
18210;SDS011;9231;48.852;9.882;2022-10-16T12:51:22;1.40;;;1.00;;
18210;SDS011;9231;48.852;9.882;2022-10-16T12:53:58;1.50;;;0.73;;
18210;SDS011;9231;48.852;9.882;2022-10-16T12:56:27;0.70;;;0.60;;
18210;SDS011;9231;48.852;9.882;2022-10-16T12:59:02;1.65;;;0.70;;
18210;SDS011;9231;48.852;9.882;2022-10-16T13:01:39;1.83;;;0.77;;
18210;SDS011;9231;48.852;9.882;2022-10-16T13:04:13;2.13;;;0.70;;
18210;SDS011;9231;48.852;9.882;2022-10-16T13:06:43;3.50;;;0.75;;
18210;SDS011;9231;48.852;9.882;2022-10-16T13:09:27;2.42;;;0.60;;
18210;SDS011;9231;48.852;9.882;2022-10-16T13:12:00;2.20;;;0.70;;
18210;SDS011;9231;48.852;9.882;2022-10-16T13:14:38;1.33;;;0.80;;
18210;SDS011;9231;48.852;9.882;2022-10-16T13:17:09;0.90;;;0.63;;
18210;SDS011;9231;48.852;9.882;2022-10-16T13:19:38;1.70;;;0.50;;
18210;SDS011;9231;48.852;9.882;2022-10-16T13:22:11;3.92;;;1.00;;
18210;SDS011;9231;48.852;9.882;2022-10-16T13:24:45;7.78;;;0.80;;
18210;SDS011;9231;48.852;9.882;2022-10-16T13:27:16;2.25;;;1.17;;
18210;SDS011;9231;48.852;9.882;2022-10-16T13:29:44;4.18;;;0.80;;
18210;SDS011;9231;48.852;9.882;2022-10-16T13:32:12;1.70;;;0.80;;
18210;SDS011;9231;48.852;9.882;2022-10-16T13:34:44;1.40;;;0.80;;
18210;SDS011;9231;48.852;9.882;2022-10-16T13:37:16;2.33;;;1.00;;
18210;SDS011;9231;48.852;9.882;2022-10-16T13:39:44;1.88;;;0.80;;
18210;SDS011;9231;48.852;9.882;2022-10-16T13:42:13;1.33;;;0.90;;
18210;SDS011;9231;48.852;9.882;2022-10-16T13:44:41;3.83;;;1.20;;
18210;SDS011;9231;48.852;9.882;2022-10-16T13:47:15;1.77;;;1.10;;
18210;SDS011;9231;48.852;9.882;2022-10-16T13:49:42;4.88;;;1.10;;
18210;SDS011;9231;48.852;9.882;2022-10-16T13:52:15;0.85;;;0.82;;
18210;SDS011;9231;48.852;9.882;2022-10-16T13:54:44;1.40;;;0.90;;
18210;SDS011;9231;48.852;9.882;2022-10-16T13:57:11;1.70;;;0.80;;
18210;SDS011;9231;48.852;9.882;2022-10-16T13:59:38;2.10;;;0.70;;
18210;SDS011;9231;48.852;9.882;2022-10-16T14:02:06;1.02;;;0.75;;
18210;SDS011;9231;48.852;9.882;2022-10-16T14:04:37;2.53;;;1.08;;
18210;SDS011;9231;48.852;9.882;2022-10-16T14:07:04;2.78;;;1.20;;
18210;SDS011;9231;48.852;9.882;2022-10-16T14:09:31;1.60;;;0.70;;
18210;SDS011;9231;48.852;9.882;2022-10-16T14:12:01;1.08;;;0.90;;
18210;SDS011;9231;48.852;9.882;2022-10-16T14:14:30;1.83;;;0.88;;
18210;SDS011;9231;48.852;9.882;2022-10-16T14:17:00;3.45;;;0.90;;
18210;SDS011;9231;48.852;9.882;2022-10-16T14:19:28;2.70;;;1.00;;
18210;SDS011;9231;48.852;9.882;2022-10-16T14:21:55;2.05;;;0.80;;
18210;SDS011;9231;48.852;9.882;2022-10-16T14:24:25;2.70;;;0.85;;
18210;SDS011;9231;48.852;9.882;2022-10-16T14:26:52;2.08;;;0.80;;
18210;SDS011;9231;48.852;9.882;2022-10-16T14:29:21;2.20;;;0.73;;
18210;SDS011;9231;48.852;9.882;2022-10-16T14:31:55;1.85;;;0.70;;
18210;SDS011;9231;48.852;9.882;2022-10-16T14:34:23;3.08;;;0.80;;
18210;SDS011;9231;48.852;9.882;2022-10-16T14:36:50;2.83;;;0.70;;
18210;SDS011;9231;48.852;9.882;2022-10-16T14:39:17;0.70;;;0.70;;
18210;SDS011;9231;48.852;9.882;2022-10-16T14:41:45;2.20;;;0.90;;
18210;SDS011;9231;48.852;9.882;2022-10-16T14:44:12;1.17;;;0.70;;
18210;SDS011;9231;48.852;9.882;2022-10-16T14:46:41;6.05;;;1.10;;
18210;SDS011;9231;48.852;9.882;2022-10-16T14:49:13;2.90;;;0.70;;
18210;SDS011;9231;48.852;9.882;2022-10-16T14:51:41;1.92;;;0.80;;
18210;SDS011;9231;48.852;9.882;2022-10-16T14:54:10;2.33;;;0.93;;
18210;SDS011;9231;48.852;9.882;2022-10-16T14:56:41;0.80;;;0.80;;
18210;SDS011;9231;48.852;9.882;2022-10-16T14:59:08;2.20;;;0.98;;
18210;SDS011;9231;48.852;9.882;2022-10-16T15:01:39;2.00;;;0.90;;
18210;SDS011;9231;48.852;9.882;2022-10-16T15:04:08;2.60;;;0.75;;
18210;SDS011;9231;48.852;9.882;2022-10-16T15:06:35;2.05;;;0.90;;
18210;SDS011;9231;48.852;9.882;2022-10-16T15:09:01;0.80;;;0.68;;
18210;SDS011;9231;48.852;9.882;2022-10-16T15:11:28;3.47;;;1.02;;